KMWL

Mineral Wells Airport

Mineral Wells, Texas, USA
METAR KMWL 172053Z AUTO 13010KT 10SM CLR 14/08 A3000 RMK AO2 SLP155 T01440083 56013
Observed Flight Rules
Dec-17 @ 20:53 UTC (43 minutes ago) Visual Flight Rules
Wind Visibility Clouds
130° at 10 knots 10 miles
  • Clear skies
Temperatures Readings
Current 14°C / 57°F
Dewpoint 8°C / 46°F
Humidity 67%
Altimeter 30" Hg
Pressure 1015.5 hPa
Elevation 284
METAR KMWL 172053Z AUTO 13010KT 10SM CLR 14/08 A3000 RMK AO2 SLP155 T01440083 56013
Observed Flight Rules
Dec-17 @ 20:53 UTC
(43 minutes ago)
VFR
Wind Visibility
130° at 10 knots 10 miles
Clouds
  • Clear skies
Temperature Dewpoint
14°C / 57°F 8°C / 46°F
Humidity Altimeter Pressure
67% 30" Hg 1015.5 hPa